sensor_id;sensor_type;location;lat;lon;timestamp;P1;durP1;ratioP1;P2;durP2;ratioP2
27491;SDS011;14927;51.210;6.838;2023-04-25T10:30:25;11.38;;;1.65;;
27491;SDS011;14927;51.210;6.838;2023-04-25T10:33:16;7.95;;;1.88;;
27491;SDS011;14927;51.210;6.838;2023-04-25T10:36:09;3.15;;;1.13;;
27491;SDS011;14927;51.210;6.838;2023-04-25T10:38:58;8.02;;;1.70;;
27491;SDS011;14927;51.210;6.838;2023-04-25T10:41:55;7.05;;;1.25;;
27491;SDS011;14927;51.210;6.838;2023-04-25T10:44:47;7.38;;;1.50;;
27491;SDS011;14927;51.210;6.838;2023-04-25T10:47:51;6.17;;;1.30;;
27491;SDS011;14927;51.210;6.838;2023-04-25T10:50:39;5.97;;;1.15;;
27491;SDS011;14927;51.210;6.838;2023-04-25T10:53:24;5.97;;;1.23;;
27491;SDS011;14927;51.210;6.838;2023-04-25T10:56:19;5.55;;;1.30;;
27491;SDS011;14927;51.210;6.838;2023-04-25T10:59:06;4.60;;;1.13;;
27491;SDS011;14927;51.210;6.838;2023-04-25T11:01:54;4.40;;;1.35;;
27491;SDS011;14927;51.210;6.838;2023-04-25T11:04:40;3.08;;;1.13;;
27491;SDS011;14927;51.210;6.838;2023-04-25T11:07:38;4.55;;;1.30;;
27491;SDS011;14927;51.210;6.838;2023-04-25T11:13:21;5.03;;;1.10;;
27491;SDS011;14927;51.210;6.838;2023-04-25T11:16:09;3.60;;;1.00;;
27491;SDS011;14927;51.210;6.838;2023-04-25T11:18:56;10.05;;;1.20;;
27491;SDS011;14927;51.210;6.838;2023-04-25T11:21:41;2.95;;;1.00;;
27491;SDS011;14927;51.210;6.838;2023-04-25T11:24:29;5.32;;;1.40;;
27491;SDS011;14927;51.210;6.838;2023-04-25T11:27:18;5.47;;;1.25;;
27491;SDS011;14927;51.210;6.838;2023-04-25T11:30:14;4.35;;;1.27;;
27491;SDS011;14927;51.210;6.838;2023-04-25T11:32:59;4.95;;;1.15;;
27491;SDS011;14927;51.210;6.838;2023-04-25T11:35:46;7.45;;;1.40;;
27491;SDS011;14927;51.210;6.838;2023-04-25T11:38:31;4.38;;;1.00;;
27491;SDS011;14927;51.210;6.838;2023-04-25T11:41:15;6.03;;;1.23;;
27491;SDS011;14927;51.210;6.838;2023-04-25T11:44:00;6.78;;;1.10;;
27491;SDS011;14927;51.210;6.838;2023-04-25T11:46:46;6.72;;;1.48;;
27491;SDS011;14927;51.210;6.838;2023-04-25T11:49:31;5.50;;;1.40;;
27491;SDS011;14927;51.210;6.838;2023-04-25T11:52:16;7.70;;;1.45;;
27491;SDS011;14927;51.210;6.838;2023-04-25T11:55:01;5.28;;;1.27;;
27491;SDS011;14927;51.210;6.838;2023-04-25T11:57:50;8.05;;;1.50;;
27491;SDS011;14927;51.210;6.838;2023-04-25T12:00:35;8.05;;;1.75;;
27491;SDS011;14927;51.210;6.838;2023-04-25T12:03:20;5.75;;;1.52;;
27491;SDS011;14927;51.210;6.838;2023-04-25T12:06:09;5.07;;;1.50;;
27491;SDS011;14927;51.210;6.838;2023-04-25T12:08:58;4.88;;;1.65;;
27491;SDS011;14927;51.210;6.838;2023-04-25T12:11:48;6.15;;;1.70;;
27491;SDS011;14927;51.210;6.838;2023-04-25T12:14:38;5.50;;;1.30;;
27491;SDS011;14927;51.210;6.838;2023-04-25T12:17:23;6.13;;;1.55;;
27491;SDS011;14927;51.210;6.838;2023-04-25T12:20:08;7.25;;;1.40;;
27491;SDS011;14927;51.210;6.838;2023-04-25T12:22:56;6.20;;;2.22;;
27491;SDS011;14927;51.210;6.838;2023-04-25T12:25:42;6.68;;;1.70;;
27491;SDS011;14927;51.210;6.838;2023-04-25T12:28:29;7.97;;;1.95;;
27491;SDS011;14927;51.210;6.838;2023-04-25T12:31:17;7.70;;;2.42;;
27491;SDS011;14927;51.210;6.838;2023-04-25T12:34:02;7.05;;;2.75;;
27491;SDS011;14927;51.210;6.838;2023-04-25T12:36:47;7.03;;;2.67;;
27491;SDS011;14927;51.210;6.838;2023-04-25T12:39:33;7.18;;;2.67;;
27491;SDS011;14927;51.210;6.838;2023-04-25T12:42:17;7.55;;;2.40;;
27491;SDS011;14927;51.210;6.838;2023-04-25T12:45:02;7.93;;;2.45;;
27491;SDS011;14927;51.210;6.838;2023-04-25T12:47:48;6.72;;;2.35;;
27491;SDS011;14927;51.210;6.838;2023-04-25T12:50:32;10.43;;;3.10;;
27491;SDS011;14927;51.210;6.838;2023-04-25T12:53:17;9.63;;;2.58;;
27491;SDS011;14927;51.210;6.838;2023-04-25T12:56:04;7.15;;;2.30;;
27491;SDS011;14927;51.210;6.838;2023-04-25T12:58:49;9.35;;;2.60;;
27491;SDS011;14927;51.210;6.838;2023-04-25T13:01:34;8.02;;;1.85;;
27491;SDS011;14927;51.210;6.838;2023-04-25T13:04:19;5.82;;;2.20;;
27491;SDS011;14927;51.210;6.838;2023-04-25T13:07:05;7.50;;;2.08;;
27491;SDS011;14927;51.210;6.838;2023-04-25T13:09:49;7.85;;;1.77;;
27491;SDS011;14927;51.210;6.838;2023-04-25T13:12:34;4.88;;;1.52;;
27491;SDS011;14927;51.210;6.838;2023-04-25T13:15:19;6.40;;;2.20;;
27491;SDS011;14927;51.210;6.838;2023-04-25T13:18:04;5.07;;;1.55;;
27491;SDS011;14927;51.210;6.838;2023-04-25T13:20:55;11.57;;;1.90;;
27491;SDS011;14927;51.210;6.838;2023-04-25T13:23:40;4.55;;;1.40;;
27491;SDS011;14927;51.210;6.838;2023-04-25T13:26:26;4.88;;;1.13;;
27491;SDS011;14927;51.210;6.838;2023-04-25T13:29:11;4.78;;;1.55;;
27491;SDS011;14927;51.210;6.838;2023-04-25T13:31:55;3.90;;;1.27;;
27491;SDS011;14927;51.210;6.838;2023-04-25T13:34:40;4.38;;;1.70;;
27491;SDS011;14927;51.210;6.838;2023-04-25T13:37:25;2.75;;;1.23;;
27491;SDS011;14927;51.210;6.838;2023-04-25T13:40:10;3.35;;;1.33;;
27491;SDS011;14927;51.210;6.838;2023-04-25T13:42:55;3.47;;;1.50;;
27491;SDS011;14927;51.210;6.838;2023-04-25T13:45:40;4.38;;;1.10;;
27491;SDS011;14927;51.210;6.838;2023-04-25T13:48:25;6.85;;;1.60;;
27491;SDS011;14927;51.210;6.838;2023-04-25T13:51:09;5.60;;;1.50;;
27491;SDS011;14927;51.210;6.838;2023-04-25T13:53:55;4.97;;;1.30;;
27491;SDS011;14927;51.210;6.838;2023-04-25T13:56:40;3.65;;;0.90;;
27491;SDS011;14927;51.210;6.838;2023-04-25T13:59:26;5.25;;;1.10;;
27491;SDS011;14927;51.210;6.838;2023-04-25T14:02:11;3.35;;;0.55;;
27491;SDS011;14927;51.210;6.838;2023-04-25T14:04:56;3.75;;;0.95;;
27491;SDS011;14927;51.210;6.838;2023-04-25T14:07:41;3.63;;;1.15;;
27491;SDS011;14927;51.210;6.838;2023-04-25T14:10:25;4.70;;;0.88;;
27491;SDS011;14927;51.210;6.838;2023-04-25T14:13:10;3.47;;;0.90;;
27491;SDS011;14927;51.210;6.838;2023-04-25T14:15:55;3.10;;;0.90;;
27491;SDS011;14927;51.210;6.838;2023-04-25T14:18:39;3.33;;;0.88;;
27491;SDS011;14927;51.210;6.838;2023-04-25T14:21:24;5.57;;;1.25;;
27491;SDS011;14927;51.210;6.838;2023-04-25T14:24:09;2.00;;;0.90;;
27491;SDS011;14927;51.210;6.838;2023-04-25T14:26:57;4.97;;;1.02;;
27491;SDS011;14927;51.210;6.838;2023-04-25T14:29:41;4.93;;;1.35;;
27491;SDS011;14927;51.210;6.838;2023-04-25T14:32:26;5.85;;;1.48;;
27491;SDS011;14927;51.210;6.838;2023-04-25T14:35:11;4.43;;;1.10;;
27491;SDS011;14927;51.210;6.838;2023-04-25T14:37:56;8.63;;;1.55;;
27491;SDS011;14927;51.210;6.838;2023-04-25T14:40:41;4.50;;;1.70;;
27491;SDS011;14927;51.210;6.838;2023-04-25T14:43:26;4.00;;;1.20;;
27491;SDS011;14927;51.210;6.838;2023-04-25T14:46:11;7.90;;;1.48;;
27491;SDS011;14927;51.210;6.838;2023-04-25T14:48:55;3.70;;;1.20;;
27491;SDS011;14927;51.210;6.838;2023-04-25T14:51:40;5.63;;;1.42;;
27491;SDS011;14927;51.210;6.838;2023-04-25T14:54:24;5.15;;;1.38;;
27491;SDS011;14927;51.210;6.838;2023-04-25T14:57:09;5.18;;;1.58;;
27491;SDS011;14927;51.210;6.838;2023-04-25T14:59:54;3.53;;;1.40;;
27491;SDS011;14927;51.210;6.838;2023-04-25T15:02:38;4.43;;;1.50;;
27491;SDS011;14927;51.210;6.838;2023-04-25T15:05:23;2.92;;;1.17;;
27491;SDS011;14927;51.210;6.838;2023-04-25T15:08:08;4.43;;;1.30;;
27491;SDS011;14927;51.210;6.838;2023-04-25T15:10:56;7.57;;;1.40;;
27491;SDS011;14927;51.210;6.838;2023-04-25T15:13:41;3.05;;;1.02;;
27491;SDS011;14927;51.210;6.838;2023-04-25T15:16:26;4.55;;;1.20;;
27491;SDS011;14927;51.210;6.838;2023-04-25T15:19:10;2.65;;;0.90;;
27491;SDS011;14927;51.210;6.838;2023-04-25T15:21:55;7.35;;;1.30;;
27491;SDS011;14927;51.210;6.838;2023-04-25T15:24:40;5.03;;;1.08;;
27491;SDS011;14927;51.210;6.838;2023-04-25T15:27:25;2.47;;;1.08;;
27491;SDS011;14927;51.210;6.838;2023-04-25T15:30:11;3.08;;;1.00;;
27491;SDS011;14927;51.210;6.838;2023-04-25T15:33:00;2.50;;;1.10;;
27491;SDS011;14927;51.210;6.838;2023-04-25T15:35:44;2.88;;;0.80;;
27491;SDS011;14927;51.210;6.838;2023-04-25T15:38:29;3.38;;;0.60;;
27491;SDS011;14927;51.210;6.838;2023-04-25T15:41:17;5.47;;;1.77;;
27491;SDS011;14927;51.210;6.838;2023-04-25T15:44:02;7.18;;;2.00;;
27491;SDS011;14927;51.210;6.838;2023-04-25T15:46:46;4.03;;;1.52;;
27491;SDS011;14927;51.210;6.838;2023-04-25T15:49:31;5.95;;;1.00;;
27491;SDS011;14927;51.210;6.838;2023-04-25T15:52:15;2.17;;;0.82;;
27491;SDS011;14927;51.210;6.838;2023-04-25T15:55:04;4.32;;;1.02;;
27491;SDS011;14927;51.210;6.838;2023-04-25T15:57:50;4.28;;;1.08;;
27491;SDS011;14927;51.210;6.838;2023-04-25T16:00:35;2.67;;;1.13;;
27491;SDS011;14927;51.210;6.838;2023-04-25T16:03:20;1.38;;;0.68;;
27491;SDS011;14927;51.210;6.838;2023-04-25T16:06:05;3.30;;;1.00;;
27491;SDS011;14927;51.210;6.838;2023-04-25T16:08:50;3.55;;;0.95;;
27491;SDS011;14927;51.210;6.838;2023-04-25T16:11:35;3.40;;;0.82;;
27491;SDS011;14927;51.210;6.838;2023-04-25T16:14:20;3.30;;;0.80;;
27491;SDS011;14927;51.210;6.838;2023-04-25T16:17:05;4.88;;;1.60;;
27491;SDS011;14927;51.210;6.838;2023-04-25T16:19:49;2.92;;;0.88;;
27491;SDS011;14927;51.210;6.838;2023-04-25T16:22:35;3.38;;;1.63;;
27491;SDS011;14927;51.210;6.838;2023-04-25T16:25:21;4.13;;;1.63;;
27491;SDS011;14927;51.210;6.838;2023-04-25T16:28:06;5.50;;;1.50;;
27491;SDS011;14927;51.210;6.838;2023-04-25T16:30:51;5.28;;;1.50;;
27491;SDS011;14927;51.210;6.838;2023-04-25T16:33:36;4.45;;;1.30;;
27491;SDS011;14927;51.210;6.838;2023-04-25T16:36:22;5.95;;;1.08;;
27491;SDS011;14927;51.210;6.838;2023-04-25T16:39:16;4.43;;;1.38;;
27491;SDS011;14927;51.210;6.838;2023-04-25T16:42:01;5.18;;;1.38;;
27491;SDS011;14927;51.210;6.838;2023-04-25T16:44:45;3.72;;;1.40;;
27491;SDS011;14927;51.210;6.838;2023-04-25T16:47:30;6.00;;;2.10;;
27491;SDS011;14927;51.210;6.838;2023-04-25T16:50:15;2.70;;;1.13;;
27491;SDS011;14927;51.210;6.838;2023-04-25T16:53:01;6.88;;;2.42;;
27491;SDS011;14927;51.210;6.838;2023-04-25T16:55:46;5.32;;;1.30;;
27491;SDS011;14927;51.210;6.838;2023-04-25T16:58:31;3.90;;;1.00;;
27491;SDS011;14927;51.210;6.838;2023-04-25T17:01:19;4.47;;;1.33;;
27491;SDS011;14927;51.210;6.838;2023-04-25T17:04:05;6.40;;;1.63;;
27491;SDS011;14927;51.210;6.838;2023-04-25T17:06:50;5.80;;;1.15;;
27491;SDS011;14927;51.210;6.838;2023-04-25T17:09:38;2.85;;;0.85;;
27491;SDS011;14927;51.210;6.838;2023-04-25T17:12:22;3.65;;;0.98;;
27491;SDS011;14927;51.210;6.838;2023-04-25T17:15:10;3.53;;;1.10;;
27491;SDS011;14927;51.210;6.838;2023-04-25T17:17:55;4.68;;;1.00;;
27491;SDS011;14927;51.210;6.838;2023-04-25T17:20:39;5.68;;;1.10;;
27491;SDS011;14927;51.210;6.838;2023-04-25T17:23:25;7.05;;;1.42;;
27491;SDS011;14927;51.210;6.838;2023-04-25T17:26:18;3.60;;;1.60;;
27491;SDS011;14927;51.210;6.838;2023-04-25T17:29:05;5.93;;;1.48;;
27491;SDS011;14927;51.210;6.838;2023-04-25T17:31:51;8.35;;;2.28;;
27491;SDS011;14927;51.210;6.838;2023-04-25T17:34:36;7.13;;;2.47;;
27491;SDS011;14927;51.210;6.838;2023-04-25T17:37:22;6.15;;;1.80;;
27491;SDS011;14927;51.210;6.838;2023-04-25T17:40:10;6.03;;;1.50;;
27491;SDS011;14927;51.210;6.838;2023-04-25T17:42:56;3.30;;;1.02;;
27491;SDS011;14927;51.210;6.838;2023-04-25T17:45:41;3.13;;;1.13;;
27491;SDS011;14927;51.210;6.838;2023-04-25T17:48:26;5.47;;;1.80;;
27491;SDS011;14927;51.210;6.838;2023-04-25T17:51:11;5.97;;;1.30;;
27491;SDS011;14927;51.210;6.838;2023-04-25T17:53:55;5.25;;;1.60;;
27491;SDS011;14927;51.210;6.838;2023-04-25T17:56:40;4.30;;;1.88;;
27491;SDS011;14927;51.210;6.838;2023-04-25T17:59:26;4.85;;;1.35;;
27491;SDS011;14927;51.210;6.838;2023-04-25T18:02:11;4.25;;;1.25;;
27491;SDS011;14927;51.210;6.838;2023-04-25T18:04:56;3.53;;;0.93;;
27491;SDS011;14927;51.210;6.838;2023-04-25T18:07:41;4.93;;;1.70;;
27491;SDS011;14927;51.210;6.838;2023-04-25T18:10:25;6.95;;;2.00;;
27491;SDS011;14927;51.210;6.838;2023-04-25T18:13:13;8.38;;;1.95;;
27491;SDS011;14927;51.210;6.838;2023-04-25T18:15:58;5.40;;;1.75;;
27491;SDS011;14927;51.210;6.838;2023-04-25T18:18:43;5.50;;;0.90;;
27491;SDS011;14927;51.210;6.838;2023-04-25T18:21:29;4.03;;;1.10;;
27491;SDS011;14927;51.210;6.838;2023-04-25T18:24:15;6.70;;;1.38;;
27491;SDS011;14927;51.210;6.838;2023-04-25T18:27:01;4.85;;;1.60;;
27491;SDS011;14927;51.210;6.838;2023-04-25T18:29:48;5.85;;;1.30;;
27491;SDS011;14927;51.210;6.838;2023-04-25T18:32:32;4.93;;;1.05;;
27491;SDS011;14927;51.210;6.838;2023-04-25T18:35:17;3.60;;;1.20;;
27491;SDS011;14927;51.210;6.838;2023-04-25T18:38:02;4.05;;;1.33;;
27491;SDS011;14927;51.210;6.838;2023-04-25T18:40:47;1.95;;;0.90;;
27491;SDS011;14927;51.210;6.838;2023-04-25T18:43:32;7.47;;;1.20;;
27491;SDS011;14927;51.210;6.838;2023-04-25T18:46:17;4.63;;;1.88;;
27491;SDS011;14927;51.210;6.838;2023-04-25T18:49:04;4.15;;;1.60;;
27491;SDS011;14927;51.210;6.838;2023-04-25T18:51:49;6.47;;;2.13;;
27491;SDS011;14927;51.210;6.838;2023-04-25T18:54:35;2.80;;;1.20;;
27491;SDS011;14927;51.210;6.838;2023-04-25T18:57:20;4.88;;;1.48;;
27491;SDS011;14927;51.210;6.838;2023-04-25T19:00:05;8.77;;;1.50;;
27491;SDS011;14927;51.210;6.838;2023-04-25T19:02:53;5.28;;;2.08;;
27491;SDS011;14927;51.210;6.838;2023-04-25T19:05:40;7.57;;;1.45;;
27491;SDS011;14927;51.210;6.838;2023-04-25T19:08:25;8.25;;;2.20;;
27491;SDS011;14927;51.210;6.838;2023-04-25T19:11:10;10.75;;;2.88;;
27491;SDS011;14927;51.210;6.838;2023-04-25T19:13:58;11.00;;;4.80;;
27491;SDS011;14927;51.210;6.838;2023-04-25T19:16:44;6.28;;;2.10;;
27491;SDS011;14927;51.210;6.838;2023-04-25T19:19:30;3.75;;;1.35;;
27491;SDS011;14927;51.210;6.838;2023-04-25T19:22:16;9.02;;;2.25;;
27491;SDS011;14927;51.210;6.838;2023-04-25T19:25:04;6.32;;;1.75;;
27491;SDS011;14927;51.210;6.838;2023-04-25T19:27:50;5.72;;;1.85;;
27491;SDS011;14927;51.210;6.838;2023-04-25T19:30:36;10.30;;;1.90;;
27491;SDS011;14927;51.210;6.838;2023-04-25T19:33:21;7.97;;;2.13;;
27491;SDS011;14927;51.210;6.838;2023-04-25T19:36:06;6.82;;;1.70;;
27491;SDS011;14927;51.210;6.838;2023-04-25T19:38:52;4.45;;;1.20;;
27491;SDS011;14927;51.210;6.838;2023-04-25T19:41:37;6.05;;;1.38;;
27491;SDS011;14927;51.210;6.838;2023-04-25T19:44:25;4.00;;;1.80;;
27491;SDS011;14927;51.210;6.838;2023-04-25T19:47:10;6.55;;;1.75;;
27491;SDS011;14927;51.210;6.838;2023-04-25T19:49:55;6.25;;;1.30;;
27491;SDS011;14927;51.210;6.838;2023-04-25T19:52:40;4.80;;;1.38;;
27491;SDS011;14927;51.210;6.838;2023-04-25T19:55:25;3.30;;;1.40;;
27491;SDS011;14927;51.210;6.838;2023-04-25T19:58:11;5.45;;;1.40;;
27491;SDS011;14927;51.210;6.838;2023-04-25T20:00:59;5.97;;;2.20;;
27491;SDS011;14927;51.210;6.838;2023-04-25T20:03:44;5.88;;;1.60;;
27491;SDS011;14927;51.210;6.838;2023-04-25T20:06:30;5.85;;;1.80;;
27491;SDS011;14927;51.210;6.838;2023-04-25T20:09:17;7.07;;;2.35;;
27491;SDS011;14927;51.210;6.838;2023-04-25T20:12:03;4.80;;;1.95;;
27491;SDS011;14927;51.210;6.838;2023-04-25T20:14:49;7.20;;;2.08;;
27491;SDS011;14927;51.210;6.838;2023-04-25T20:17:33;9.15;;;2.40;;
27491;SDS011;14927;51.210;6.838;2023-04-25T20:20:18;8.15;;;1.92;;
27491;SDS011;14927;51.210;6.838;2023-04-25T20:23:06;7.38;;;1.60;;
27491;SDS011;14927;51.210;6.838;2023-04-25T20:25:52;8.00;;;2.50;;
27491;SDS011;14927;51.210;6.838;2023-04-25T20:28:37;6.78;;;2.00;;
27491;SDS011;14927;51.210;6.838;2023-04-25T20:31:24;8.50;;;2.50;;
27491;SDS011;14927;51.210;6.838;2023-04-25T20:34:09;7.88;;;1.90;;
27491;SDS011;14927;51.210;6.838;2023-04-25T20:36:53;15.18;;;2.20;;
27491;SDS011;14927;51.210;6.838;2023-04-25T20:39:38;4.93;;;1.95;;
27491;SDS011;14927;51.210;6.838;2023-04-25T20:42:23;6.78;;;1.80;;
27491;SDS011;14927;51.210;6.838;2023-04-25T20:45:08;6.63;;;2.25;;
27491;SDS011;14927;51.210;6.838;2023-04-25T20:47:57;6.18;;;1.40;;
27491;SDS011;14927;51.210;6.838;2023-04-25T20:50:42;7.35;;;1.83;;
27491;SDS011;14927;51.210;6.838;2023-04-25T20:53:26;9.18;;;1.67;;
27491;SDS011;14927;51.210;6.838;2023-04-25T20:56:11;6.18;;;1.88;;
27491;SDS011;14927;51.210;6.838;2023-04-25T20:59:05;12.35;;;2.13;;
27491;SDS011;14927;51.210;6.838;2023-04-25T21:01:50;8.63;;;1.83;;
27491;SDS011;14927;51.210;6.838;2023-04-25T21:04:44;10.80;;;2.58;;
27491;SDS011;14927;51.210;6.838;2023-04-25T21:07:30;7.97;;;2.28;;
27491;SDS011;14927;51.210;6.838;2023-04-25T21:10:15;5.05;;;1.98;;
27491;SDS011;14927;51.210;6.838;2023-04-25T21:13:01;11.68;;;2.92;;
27491;SDS011;14927;51.210;6.838;2023-04-25T21:15:45;7.30;;;2.13;;
27491;SDS011;14927;51.210;6.838;2023-04-25T21:18:31;7.88;;;3.13;;
27491;SDS011;14927;51.210;6.838;2023-04-25T21:21:17;6.63;;;2.80;;
27491;SDS011;14927;51.210;6.838;2023-04-25T21:24:01;6.85;;;2.40;;
27491;SDS011;14927;51.210;6.838;2023-04-25T21:26:46;10.70;;;2.70;;
27491;SDS011;14927;51.210;6.838;2023-04-25T21:29:31;6.53;;;2.00;;
27491;SDS011;14927;51.210;6.838;2023-04-25T21:32:16;10.77;;;2.85;;
27491;SDS011;14927;51.210;6.838;2023-04-25T21:35:03;7.25;;;2.63;;
27491;SDS011;14927;51.210;6.838;2023-04-25T21:37:49;9.57;;;3.13;;
27491;SDS011;14927;51.210;6.838;2023-04-25T21:40:36;12.60;;;3.33;;
27491;SDS011;14927;51.210;6.838;2023-04-25T21:43:23;9.68;;;2.63;;
27491;SDS011;14927;51.210;6.838;2023-04-25T21:46:07;9.23;;;2.65;;
27491;SDS011;14927;51.210;6.838;2023-04-25T21:48:52;8.98;;;2.20;;
27491;SDS011;14927;51.210;6.838;2023-04-25T21:51:37;7.97;;;2.80;;
27491;SDS011;14927;51.210;6.838;2023-04-25T21:54:22;12.25;;;1.90;;
27491;SDS011;14927;51.210;6.838;2023-04-25T21:57:06;9.18;;;2.17;;
27491;SDS011;14927;51.210;6.838;2023-04-25T21:59:51;5.63;;;2.13;;
27491;SDS011;14927;51.210;6.838;2023-04-25T22:02:36;13.43;;;2.63;;
27491;SDS011;14927;51.210;6.838;2023-04-25T22:05:21;9.23;;;2.00;;
27491;SDS011;14927;51.210;6.838;2023-04-25T22:08:09;7.05;;;2.40;;
27491;SDS011;14927;51.210;6.838;2023-04-25T22:10:54;8.00;;;2.70;;
27491;SDS011;14927;51.210;6.838;2023-04-25T22:13:44;10.55;;;2.03;;
27491;SDS011;14927;51.210;6.838;2023-04-25T22:16:29;6.03;;;2.50;;
27491;SDS011;14927;51.210;6.838;2023-04-25T22:19:14;6.60;;;2.13;;
27491;SDS011;14927;51.210;6.838;2023-04-25T22:22:00;9.32;;;2.20;;
27491;SDS011;14927;51.210;6.838;2023-04-25T22:24:45;5.80;;;1.85;;
27491;SDS011;14927;51.210;6.838;2023-04-25T22:27:31;5.68;;;2.00;;
27491;SDS011;14927;51.210;6.838;2023-04-25T22:30:17;8.57;;;2.42;;
27491;SDS011;14927;51.210;6.838;2023-04-25T22:33:02;8.02;;;2.40;;
27491;SDS011;14927;51.210;6.838;2023-04-25T22:35:47;6.72;;;2.42;;
27491;SDS011;14927;51.210;6.838;2023-04-25T22:38:31;9.05;;;2.95;;
27491;SDS011;14927;51.210;6.838;2023-04-25T22:41:16;6.78;;;2.40;;
27491;SDS011;14927;51.210;6.838;2023-04-25T22:44:00;9.57;;;2.70;;
27491;SDS011;14927;51.210;6.838;2023-04-25T22:46:45;7.28;;;2.88;;
27491;SDS011;14927;51.210;6.838;2023-04-25T22:49:30;7.97;;;3.20;;
27491;SDS011;14927;51.210;6.838;2023-04-25T22:52:15;9.18;;;3.72;;
27491;SDS011;14927;51.210;6.838;2023-04-25T22:55:00;8.35;;;3.10;;
27491;SDS011;14927;51.210;6.838;2023-04-25T22:57:48;8.85;;;3.42;;
27491;SDS011;14927;51.210;6.838;2023-04-25T23:00:32;7.03;;;3.40;;
27491;SDS011;14927;51.210;6.838;2023-04-25T23:03:17;8.82;;;3.33;;
27491;SDS011;14927;51.210;6.838;2023-04-25T23:06:02;11.55;;;3.42;;
27491;SDS011;14927;51.210;6.838;2023-04-25T23:08:46;9.10;;;3.70;;
27491;SDS011;14927;51.210;6.838;2023-04-25T23:11:31;11.73;;;4.18;;
27491;SDS011;14927;51.210;6.838;2023-04-25T23:14:16;6.05;;;3.30;;
27491;SDS011;14927;51.210;6.838;2023-04-25T23:17:01;12.57;;;4.32;;
27491;SDS011;14927;51.210;6.838;2023-04-25T23:19:46;9.52;;;4.28;;
27491;SDS011;14927;51.210;6.838;2023-04-25T23:22:32;9.77;;;4.15;;
27491;SDS011;14927;51.210;6.838;2023-04-25T23:25:17;12.18;;;4.10;;
27491;SDS011;14927;51.210;6.838;2023-04-25T23:28:01;10.50;;;4.47;;
27491;SDS011;14927;51.210;6.838;2023-04-25T23:30:46;9.43;;;4.18;;
27491;SDS011;14927;51.210;6.838;2023-04-25T23:33:31;10.40;;;3.85;;
27491;SDS011;14927;51.210;6.838;2023-04-25T23:36:16;10.98;;;4.28;;
27491;SDS011;14927;51.210;6.838;2023-04-25T23:39:04;8.43;;;4.68;;
27491;SDS011;14927;51.210;6.838;2023-04-25T23:41:52;11.00;;;4.53;;
27491;SDS011;14927;51.210;6.838;2023-04-25T23:44:37;18.10;;;8.95;;
27491;SDS011;14927;51.210;6.838;2023-04-25T23:47:21;13.23;;;6.40;;
27491;SDS011;14927;51.210;6.838;2023-04-25T23:50:06;14.70;;;6.93;;
27491;SDS011;14927;51.210;6.838;2023-04-25T23:52:51;15.00;;;7.07;;
27491;SDS011;14927;51.210;6.838;2023-04-25T23:55:36;15.70;;;8.57;;
27491;SDS011;14927;51.210;6.838;2023-04-25T23:58:21;15.50;;;7.78;;
